Time;durP1;ratioP1;P1;durP2;ratioP2;P2;SDS_P1;SDS_P2;PMS_P1;PMS_P2;Temp;Humidity;BMP_temperature;BMP_pressure;BME280_temperature;BME280_humidity;BME280_pressure;Samples;Min_cycle;Max_cycle;Signal;HPM_P1;HPM_P2
2022/06/14 00:00:54;;;;;;;3.17;2.30;;;24.00;53.30;;;;;;5034649;28;20390;-65
2022/06/14 00:03:22;;;;;;;3.20;2.20;;;24.10;53.30;;;;;;5033353;28;20440;-65
2022/06/14 00:05:47;;;;;;;4.10;2.60;;;24.00;53.40;;;;;;5034477;28;20398;-65
2022/06/14 00:08:13;;;;;;;3.47;2.60;;;24.00;53.30;;;;;;5034070;28;20743;-65
2022/06/14 00:10:40;;;;;;;4.28;2.60;;;24.00;53.30;;;;;;5034420;28;20395;-65
2022/06/14 00:13:07;;;;;;;3.72;2.47;;;24.00;53.40;;;;;;5033092;28;20872;-65
2022/06/14 00:15:33;;;;;;;3.15;2.30;;;24.00;53.40;;;;;;5032971;28;20415;-65
2022/06/14 00:17:59;;;;;;;3.23;2.30;;;24.00;53.40;;;;;;5034179;28;20900;-65
2022/06/14 00:20:25;;;;;;;3.33;2.55;;;24.00;53.40;;;;;;5034111;28;20395;-65
2022/06/14 00:22:50;;;;;;;2.80;2.30;;;24.00;53.40;;;;;;5034078;28;20808;-65
2022/06/14 00:25:36;;;;;;;3.08;2.40;;;24.00;53.30;;;;;;5034300;28;20401;-65
2022/06/14 00:28:03;;;;;;;4.30;2.50;;;24.00;53.30;;;;;;5033972;28;20391;-65
2022/06/14 00:30:30;;;;;;;3.60;2.28;;;24.00;53.30;;;;;;5034151;28;20391;-65
2022/06/14 00:32:55;;;;;;;3.20;2.10;;;24.00;53.40;;;;;;5034090;28;20383;-65
2022/06/14 00:35:21;;;;;;;2.80;2.28;;;24.00;53.30;;;;;;5033988;28;20925;-65
2022/06/14 00:37:47;;;;;;;3.27;2.30;;;24.00;53.30;;;;;;5034007;28;20473;-65
2022/06/14 00:40:15;;;;;;;3.33;2.30;;;24.00;53.30;;;;;;5033511;28;20402;-65
2022/06/14 00:42:41;;;;;;;3.40;2.50;;;24.00;53.30;;;;;;5033817;28;20887;-65
2022/06/14 00:45:09;;;;;;;3.80;2.70;;;24.00;53.20;;;;;;5033821;28;20399;-65
2022/06/14 00:47:44;;;;;;;2.55;2.30;;;23.90;53.20;;;;;;5032313;28;20387;-65
2022/06/14 00:50:23;;;;;;;2.75;2.22;;;23.90;53.10;;;;;;5033395;28;20437;-65
2022/06/14 00:52:55;;;;;;;3.25;2.30;;;24.00;53.10;;;;;;5033689;28;20467;-65
2022/06/14 00:55:33;;;;;;;3.00;2.50;;;23.90;53.10;;;;;;5033647;28;20473;-65
2022/06/14 00:58:06;;;;;;;2.75;2.30;;;23.90;53.10;;;;;;5032210;28;20383;-65
2022/06/14 01:00:37;;;;;;;3.25;2.38;;;23.90;53.10;;;;;;5048896;28;20430;-65
2022/06/14 01:03:15;;;;;;;3.15;2.47;;;23.90;53.70;;;;;;5033096;28;20395;-65
2022/06/14 01:06:11;;;;;;;3.90;2.20;;;23.90;53.10;;;;;;5048985;28;20430;-65
2022/06/14 01:08:51;;;;;;;2.50;2.15;;;23.90;53.10;;;;;;5028394;28;20399;-65
2022/06/14 01:11:30;;;;;;;2.95;2.20;;;23.90;53.10;;;;;;5033427;28;20457;-65
2022/06/14 01:13:56;;;;;;;2.97;2.20;;;23.90;53.20;;;;;;5031450;28;20453;-65
2022/06/14 01:16:22;;;;;;;3.07;2.37;;;23.90;53.10;;;;;;5032462;28;20391;-65
2022/06/14 01:18:48;;;;;;;2.92;2.10;;;23.90;53.10;;;;;;5033394;28;20375;-65
2022/06/14 01:21:15;;;;;;;3.30;2.13;;;23.90;53.10;;;;;;5033268;28;20391;-65
2022/06/14 01:23:41;;;;;;;2.97;2.30;;;23.90;53.00;;;;;;5033017;28;20411;-65
2022/06/14 01:26:20;;;;;;;3.10;2.13;;;23.90;53.00;;;;;;5032758;28;20387;-65
2022/06/14 01:28:50;;;;;;;2.83;1.98;;;23.90;53.00;;;;;;5031752;28;20460;-65
2022/06/14 01:31:18;;;;;;;2.83;2.08;;;23.90;53.00;;;;;;5032938;28;20442;-65
2022/06/14 01:33:47;;;;;;;2.85;2.08;;;23.90;53.00;;;;;;5032721;28;20399;-65
2022/06/14 01:36:23;;;;;;;3.28;2.20;;;23.90;53.00;;;;;;5032426;28;20464;-65
2022/06/14 01:38:49;;;;;;;3.23;2.07;;;23.90;53.00;;;;;;5032783;28;20391;-65
2022/06/14 01:41:18;;;;;;;3.30;2.25;;;23.80;52.90;;;;;;5032846;28;20395;-65
2022/06/14 01:43:56;;;;;;;3.30;2.30;;;23.80;52.90;;;;;;5032712;28;20391;-65
2022/06/14 01:46:29;;;;;;;2.85;2.30;;;23.80;53.00;;;;;;5032309;28;20449;-65
2022/06/14 01:52:16;;;;;;;3.10;2.30;;;23.80;52.90;;;;;;5032847;28;20478;-65
2022/06/14 01:54:47;;;;;;;2.40;2.10;;;23.80;53.00;;;;;;5022145;28;20423;-65
2022/06/14 01:57:32;;;;;;;2.42;2.20;;;23.80;53.00;;;;;;5032597;28;20383;-65
2022/06/14 02:00:10;;;;;;;2.67;2.20;;;23.80;53.00;;;;;;5032182;28;20872;-65
2022/06/14 02:02:41;;;;;;;2.50;2.00;;;23.80;53.00;;;;;;5032237;28;20390;-65
2022/06/14 02:05:28;;;;;;;2.58;2.17;;;23.80;53.00;;;;;;5032481;28;20406;-65
2022/06/14 02:08:06;;;;;;;2.75;2.10;;;23.80;52.90;;;;;;5032318;28;20395;-65
2022/06/14 02:10:57;;;;;;;2.60;1.95;;;23.80;53.00;;;;;;5031992;28;20521;-65
2022/06/14 02:13:32;;;;;;;2.47;2.00;;;23.80;52.90;;;;;;5032174;28;20888;-65
2022/06/14 02:16:13;;;;;;;2.50;2.13;;;23.80;53.00;;;;;;5031404;28;20478;-65
2022/06/14 02:18:42;;;;;;;2.65;1.92;;;23.80;53.00;;;;;;5030832;28;20395;-65
2022/06/14 02:21:19;;;;;;;2.95;2.15;;;23.80;52.90;;;;;;5032190;28;20756;-65
2022/06/14 02:23:48;;;;;;;2.47;2.00;;;23.80;53.00;;;;;;5031997;28;20434;-65
2022/06/14 02:26:28;;;;;;;3.00;2.20;;;23.70;53.00;;;;;;5030227;28;20391;-65
2022/06/14 02:28:59;;;;;;;2.70;2.00;;;23.70;52.90;;;;;;5031951;28;20387;-65
2022/06/14 02:31:31;;;;;;;3.40;2.40;;;23.70;52.90;;;;;;5031984;28;20379;-65
2022/06/14 02:34:03;;;;;;;2.60;2.10;;;23.80;53.00;;;;;;5030538;28;20406;-65
2022/06/14 02:36:53;;;;;;;3.10;2.35;;;23.70;52.90;;;;;;5031600;28;20743;-65
2022/06/14 02:39:30;;;;;;;3.33;2.20;;;23.70;52.90;;;;;;5030607;28;20411;-65
2022/06/14 02:42:10;;;;;;;3.28;2.10;;;23.70;52.90;;;;;;5031650;28;20398;-65
2022/06/14 02:45:08;;;;;;;3.10;2.23;;;23.70;53.00;;;;;;5031003;28;20394;-65
2022/06/14 02:47:46;;;;;;;2.50;2.00;;;23.70;52.90;;;;;;5031279;28;20379;-65
2022/06/14 02:50:27;;;;;;;2.78;2.00;;;23.70;53.00;;;;;;5031125;28;20434;-65
2022/06/14 02:53:05;;;;;;;3.88;2.50;;;23.70;53.00;;;;;;5030272;28;20888;-65
2022/06/14 02:55:53;;;;;;;3.03;2.10;;;23.70;52.90;;;;;;5031288;28;20426;-65
2022/06/14 02:58:34;;;;;;;2.55;2.28;;;23.70;53.00;;;;;;5029716;28;20478;-65
2022/06/14 03:01:10;;;;;;;3.10;2.08;;;23.70;53.10;;;;;;5031375;28;20387;-65
2022/06/14 03:03:48;;;;;;;3.25;2.20;;;23.70;53.00;;;;;;5031629;28;20384;-65
2022/06/14 03:06:34;;;;;;;2.80;2.25;;;23.70;53.00;;;;;;5030973;28;20485;-65
2022/06/14 03:09:05;;;;;;;2.92;2.03;;;23.70;52.90;;;;;;5031414;28;20397;-65
2022/06/14 03:11:49;;;;;;;2.70;2.40;;;23.70;52.90;;;;;;5031393;28;20387;-65
2022/06/14 03:14:35;;;;;;;3.15;2.13;;;23.70;53.00;;;;;;5029495;28;20465;-66
2022/06/14 03:17:04;;;;;;;2.85;2.28;;;23.70;53.00;;;;;;5031375;28;20394;-65
2022/06/14 03:19:49;;;;;;;3.40;2.30;;;23.70;53.00;;;;;;5031286;28;20441;-65
2022/06/14 03:22:29;;;;;;;2.63;2.10;;;23.70;52.90;;;;;;5030708;28;20403;-65
2022/06/14 03:25:04;;;;;;;2.60;2.03;;;23.60;52.90;;;;;;5031225;28;20441;-65
2022/06/14 03:27:35;;;;;;;3.10;2.50;;;23.60;52.80;;;;;;5034214;28;20388;-65
2022/06/14 03:30:12;;;;;;;3.00;2.20;;;23.70;53.20;;;;;;5035316;28;20453;-65
2022/06/14 03:33:08;;;;;;;2.50;2.20;;;23.60;52.90;;;;;;5034777;28;20445;-65
2022/06/14 03:35:44;;;;;;;3.00;2.20;;;23.60;53.10;;;;;;5034201;28;20414;-65
2022/06/14 03:38:39;;;;;;;3.00;2.30;;;23.60;52.80;;;;;;5034893;28;20397;-65
2022/06/14 03:41:08;;;;;;;3.08;2.20;;;23.70;52.90;;;;;;5032033;28;20449;-65
2022/06/14 03:43:36;;;;;;;3.10;2.50;;;23.60;52.80;;;;;;5033708;28;20471;-65
2022/06/14 03:46:36;;;;;;;3.17;2.30;;;23.60;52.80;;;;;;5034962;28;20395;-65
2022/06/14 03:49:08;;;;;;;3.05;2.40;;;23.60;52.90;;;;;;5034614;28;20418;-65
2022/06/14 03:51:52;;;;;;;2.60;2.30;;;23.60;52.80;;;;;;5034846;28;20414;-65
2022/06/14 03:54:55;;;;;;;2.87;2.43;;;23.60;52.70;;;;;;5034289;28;20399;-65
2022/06/14 03:57:57;;;;;;;3.53;2.30;;;23.60;52.90;;;;;;5034808;28;20395;-65
2022/06/14 04:01:00;;;;;;;3.13;2.10;;;23.60;52.80;;;;;;5029003;28;20402;-65
2022/06/14 04:03:58;;;;;;;3.40;2.10;;;23.60;52.80;;;;;;5015667;28;20392;-65
2022/06/14 04:06:30;;;;;;;2.55;2.00;;;23.60;52.90;;;;;;5014617;28;20384;-65
2022/06/14 04:09:14;;;;;;;3.40;2.30;;;23.60;52.90;;;;;;5014947;28;20388;-65
2022/06/14 04:11:52;;;;;;;2.88;2.13;;;23.60;52.90;;;;;;5014723;28;20381;-65
2022/06/14 04:14:27;;;;;;;3.05;2.33;;;23.60;52.80;;;;;;5029192;28;20416;-65
2022/06/14 04:17:20;;;;;;;2.88;2.20;;;23.60;52.90;;;;;;5030136;28;20454;-66
2022/06/14 04:20:07;;;;;;;3.57;2.50;;;23.60;52.70;;;;;;5029740;28;20480;-65
2022/06/14 04:23:05;;;;;;;4.32;2.10;;;23.60;52.80;;;;;;5029190;28;20444;-65
2022/06/14 04:25:37;;;;;;;3.25;2.20;;;23.60;53.40;;;;;;5013206;28;20397;-66
2022/06/14 04:28:18;;;;;;;4.80;3.25;;;23.60;53.40;;;;;;5013195;28;20920;-65
2022/06/14 04:30:53;;;;;;;5.28;3.75;;;23.70;54.00;;;;;;5013020;28;20412;-65
2022/06/14 04:33:31;;;;;;;4.57;3.10;;;23.70;54.90;;;;;;5013095;28;20396;-65
2022/06/14 04:36:10;;;;;;;5.15;2.75;;;23.70;54.80;;;;;;5012944;28;20773;-65
2022/06/14 04:38:53;;;;;;;3.97;2.90;;;23.80;54.80;;;;;;5013297;28;20403;-65
2022/06/14 04:41:28;;;;;;;3.40;2.90;;;23.80;54.80;;;;;;5014218;28;20547;-65
2022/06/14 04:44:09;;;;;;;6.35;3.08;;;23.80;54.80;;;;;;5014133;28;21083;-65
2022/06/14 04:46:46;;;;;;;3.33;2.50;;;23.90;54.70;;;;;;5012746;28;20393;-66
2022/06/14 04:49:24;;;;;;;3.72;2.70;;;23.90;55.00;;;;;;5012769;28;20424;-65
2022/06/14 04:52:12;;;;;;;5.72;2.67;;;23.90;54.70;;;;;;5019306;28;20399;-65
2022/06/14 04:54:52;;;;;;;4.43;3.10;;;23.90;55.30;;;;;;5050695;28;20479;-65
2022/06/14 04:57:33;;;;;;;3.83;2.90;;;23.80;54.80;;;;;;5032168;28;20779;-65
2022/06/14 05:00:08;;;;;;;3.70;2.80;;;23.80;55.00;;;;;;5048776;28;20388;-65
2022/06/14 05:02:39;;;;;;;3.47;2.67;;;23.80;55.00;;;;;;5032718;28;20403;-65
2022/06/14 05:05:10;;;;;;;3.25;2.70;;;23.80;54.40;;;;;;5032129;28;20399;-65
2022/06/14 05:07:51;;;;;;;4.30;2.70;;;23.80;54.30;;;;;;5033056;28;20390;-65
2022/06/14 05:10:33;;;;;;;3.42;2.50;;;23.80;55.20;;;;;;5032976;28;20434;-65
2022/06/14 05:13:07;;;;;;;3.20;2.30;;;23.80;54.80;;;;;;5033047;28;20382;-65
2022/06/14 05:15:57;;;;;;;3.60;2.42;;;23.80;54.70;;;;;;5032461;28;20511;-65
2022/06/14 05:18:30;;;;;;;4.73;2.57;;;23.80;54.50;;;;;;5031256;28;20482;-66
2022/06/14 05:21:08;;;;;;;2.97;2.63;;;23.70;54.10;;;;;;5031577;28;20380;-66
2022/06/14 05:23:48;;;;;;;4.30;2.50;;;23.80;54.30;;;;;;5032656;28;20414;-66
2022/06/14 05:26:26;;;;;;;3.67;2.60;;;23.80;54.20;;;;;;5032672;28;20387;-66
2022/06/14 05:29:25;;;;;;;5.47;2.38;;;23.80;54.10;;;;;;5032689;28;20478;-64
2022/06/14 05:32:09;;;;;;;5.00;2.60;;;23.80;54.10;;;;;;5032628;28;20426;-63
2022/06/14 05:34:41;;;;;;;3.95;2.38;;;23.80;54.00;;;;;;5032115;28;20415;-64
2022/06/14 05:37:18;;;;;;;3.00;2.20;;;23.80;53.80;;;;;;5032532;28;20387;-64
2022/06/14 05:39:47;;;;;;;4.38;2.58;;;23.80;53.60;;;;;;5032555;28;20820;-64
2022/06/14 05:42:22;;;;;;;4.95;2.45;;;23.70;53.80;;;;;;5032565;28;20954;-66
2022/06/14 05:44:53;;;;;;;5.55;2.40;;;23.70;53.60;;;;;;5047847;28;20502;-64
2022/06/14 05:47:36;;;;;;;6.40;3.38;;;23.70;53.30;;;;;;5032519;28;20398;-64
2022/06/14 05:50:11;;;;;;;6.55;3.70;;;23.80;53.20;;;;;;5032523;28;20410;-64
2022/06/14 05:52:56;;;;;;;5.40;3.45;;;23.70;53.20;;;;;;5031749;28;20390;-64
2022/06/14 05:55:30;;;;;;;5.85;3.97;;;23.70;53.30;;;;;;5031012;28;20503;-64
2022/06/14 05:58:13;;;;;;;7.85;4.28;;;23.70;53.00;;;;;;5032192;28;20380;-64
2022/06/14 06:00:48;;;;;;;7.38;4.55;;;23.70;52.80;;;;;;5031545;28;20481;-64
2022/06/14 06:03:35;;;;;;;9.00;4.32;;;23.70;53.90;;;;;;5032201;28;20387;-67
2022/06/14 06:06:07;;;;;;;7.45;4.50;;;23.70;54.20;;;;;;5032289;28;20387;-64
2022/06/14 06:08:41;;;;;;;9.13;4.00;;;23.70;54.10;;;;;;5031395;28;20474;-64
2022/06/14 06:11:43;;;;;;;7.95;4.00;;;23.70;53.90;;;;;;5030716;28;20453;-64
2022/06/14 06:14:24;;;;;;;6.43;3.58;;;23.70;54.00;;;;;;5031675;28;20433;-64
2022/06/14 06:19:30;;;;;;;5.72;3.65;;;23.70;53.60;;;;;;5031970;28;20500;-64
2022/06/14 06:22:16;;;;;;;6.57;3.60;;;23.70;53.40;;;;;;5031687;28;20487;-64
2022/06/14 06:25:11;;;;;;;7.15;3.70;;;23.80;53.50;;;;;;5031257;28;20391;-64
2022/06/14 06:27:47;;;;;;;7.00;3.58;;;23.80;52.60;;;;;;5031600;28;20394;-66
2022/06/14 06:30:22;;;;;;;7.85;3.45;;;23.80;52.90;;;;;;5031618;28;20395;-66
2022/06/14 06:32:47;;;;;;;6.70;3.30;;;23.80;52.70;;;;;;5031499;28;20402;-66
2022/06/14 06:35:13;;;;;;;6.83;3.70;;;23.80;52.70;;;;;;5031486;28;20419;-66
2022/06/14 06:37:46;;;;;;;9.80;3.72;;;23.90;53.60;;;;;;5031219;28;20393;-66
2022/06/14 06:40:23;;;;;;;10.23;3.97;;;23.90;54.60;;;;;;5031479;28;20571;-66
2022/06/14 06:43:17;;;;;;;12.95;3.80;;;23.90;55.20;;;;;;5031300;28;20376;-64
2022/06/14 06:45:44;;;;;;;11.60;4.10;;;23.90;55.10;;;;;;5028007;28;20407;-64
2022/06/14 06:48:15;;;;;;;9.65;3.80;;;23.90;55.10;;;;;;5029644;28;20880;-64
2022/06/14 06:50:40;;;;;;;8.95;3.40;;;23.90;54.60;;;;;;5031220;28;20390;-65
2022/06/14 06:53:20;;;;;;;7.53;3.50;;;23.90;53.80;;;;;;5030299;28;20410;-64
2022/06/14 06:55:49;;;;;;;10.27;3.47;;;23.90;53.40;;;;;;5031123;28;20426;-64
2022/06/14 06:58:37;;;;;;;10.63;4.05;;;23.90;54.00;;;;;;5031315;28;20402;-65
2022/06/14 07:01:19;;;;;;;12.60;3.60;;;23.90;54.30;;;;;;5031135;28;20393;-64
2022/06/14 07:04:01;;;;;;;8.55;3.28;;;23.90;54.00;;;;;;5031098;28;20466;-64
2022/06/14 07:06:28;;;;;;;10.75;4.45;;;23.90;54.00;;;;;;5030828;28;20391;-64
2022/06/14 07:09:01;;;;;;;10.30;5.97;;;23.90;56.30;;;;;;5031124;28;20826;-64
2022/06/14 07:11:35;;;;;;;9.95;4.40;;;24.00;58.00;;;;;;5031083;28;20487;-65
2022/06/14 07:14:10;;;;;;;7.77;3.60;;;24.00;56.30;;;;;;5031184;28;21011;-65
2022/06/14 07:16:44;;;;;;;7.80;3.65;;;24.00;55.50;;;;;;5029034;28;20406;-65
2022/06/14 07:19:19;;;;;;;10.90;4.18;;;24.00;55.90;;;;;;5046490;28;20425;-65
2022/06/14 07:21:53;;;;;;;12.35;4.07;;;24.10;56.40;;;;;;5030776;28;20764;-65
2022/06/14 07:24:25;;;;;;;10.73;3.80;;;24.10;55.90;;;;;;5031060;28;20422;-64
2022/06/14 07:27:05;;;;;;;15.70;7.80;;;24.10;56.00;;;;;;5030719;28;20446;-64
2022/06/14 07:29:54;;;;;;;11.32;6.82;;;24.10;59.00;;;;;;5030922;28;20395;-64
2022/06/14 07:32:26;;;;;;;16.73;9.90;;;24.20;59.10;;;;;;5030945;28;20441;-64
2022/06/14 07:34:52;;;;;;;17.00;9.00;;;24.20;58.00;;;;;;5029221;28;20430;-64
2022/06/14 07:37:33;;;;;;;15.80;9.13;;;24.20;56.80;;;;;;5030980;28;20387;-64
2022/06/14 07:39:59;;;;;;;15.27;9.95;;;24.20;56.20;;;;;;5031030;28;20395;-64
2022/06/14 07:42:54;;;;;;;15.02;9.88;;;24.10;56.20;;;;;;5029367;28;20537;-64
2022/06/14 07:45:22;;;;;;;23.58;17.75;;;24.10;55.90;;;;;;5030840;28;20387;-64
2022/06/14 07:47:51;;;;;;;16.67;12.27;;;24.20;59.80;;;;;;5029180;28;20383;-64
2022/06/14 07:50:28;;;;;;;14.38;9.02;;;24.20;59.10;;;;;;5046388;28;20398;-64
2022/06/14 07:53:08;;;;;;;12.77;8.83;;;24.20;57.00;;;;;;5029570;28;20886;-64
2022/06/14 07:55:47;;;;;;;12.95;8.52;;;24.20;56.50;;;;;;5029520;28;20530;-65
2022/06/14 07:58:19;;;;;;;12.35;8.20;;;24.10;56.00;;;;;;5046010;28;20891;-65
2022/06/14 08:01:08;;;;;;;12.18;7.97;;;24.10;55.80;;;;;;5029851;28;20406;-65
2022/06/14 08:03:59;;;;;;;10.77;7.63;;;24.10;55.50;;;;;;5029972;28;20728;-64
2022/06/14 08:06:40;;;;;;;12.90;7.40;;;24.10;54.80;;;;;;5030240;28;20399;-64
2022/06/14 08:09:09;;;;;;;12.57;7.40;;;24.20;54.30;;;;;;5030579;28;20394;-65
2022/06/14 08:11:50;;;;;;;11.60;7.20;;;24.20;54.20;;;;;;5030504;28;20396;-64
2022/06/14 08:14:55;;;;;;;10.38;6.68;;;24.20;53.70;;;;;;5032777;28;20403;-64
2022/06/14 08:17:57;;;;;;;9.70;6.55;;;24.20;53.80;;;;;;5031685;28;20407;-64
2022/06/14 08:20:32;;;;;;;9.70;6.68;;;24.10;53.40;;;;;;5014815;28;20875;-64
2022/06/14 08:23:03;;;;;;;11.23;6.25;;;24.20;53.50;;;;;;5049102;28;20484;-64
2022/06/14 08:25:34;;;;;;;9.85;5.75;;;24.20;53.40;;;;;;5033836;28;20406;-65
2022/06/14 08:28:10;;;;;;;10.33;6.17;;;24.20;53.40;;;;;;5049167;28;20398;-64
2022/06/14 08:30:40;;;;;;;11.70;6.30;;;24.20;53.20;;;;;;5033190;28;20470;-64
2022/06/14 08:33:24;;;;;;;9.85;6.13;;;24.20;53.30;;;;;;5033598;28;20395;-64
2022/06/14 08:35:55;;;;;;;10.88;6.20;;;24.20;53.40;;;;;;5049059;28;20427;-65
2022/06/14 08:38:30;;;;;;;11.55;6.90;;;24.40;53.60;;;;;;5033738;28;20387;-65
2022/06/14 08:41:35;;;;;;;12.77;6.63;;;24.40;53.60;;;;;;5033643;28;20890;-65
2022/06/14 08:44:23;;;;;;;11.98;5.93;;;24.40;53.40;;;;;;5033749;28;20478;-64
2022/06/14 08:47:10;;;;;;;11.27;6.07;;;24.40;53.00;;;;;;5033164;28;20416;-65
2022/06/14 08:50:09;;;;;;;11.82;5.82;;;24.40;53.00;;;;;;5048781;28;20391;-64
2022/06/14 08:53:00;;;;;;;9.13;5.43;;;24.40;52.80;;;;;;4989472;28;20387;-64
2022/06/14 08:55:50;;;;;;;11.80;5.28;;;24.50;52.90;;;;;;5033198;28;20415;-65
2022/06/14 08:58:41;;;;;;;10.55;5.47;;;24.60;52.40;;;;;;5033519;28;20383;-64
2022/06/14 09:01:15;;;;;;;8.15;5.25;;;24.60;52.10;;;;;;5032589;28;20751;-64
2022/06/14 09:04:02;;;;;;;12.75;5.30;;;24.60;52.20;;;;;;5033047;28;20441;-65
2022/06/14 09:06:32;;;;;;;12.57;5.68;;;24.60;52.30;;;;;;5032508;28;20391;-64
2022/06/14 09:09:30;;;;;;;9.07;5.20;;;24.60;52.10;;;;;;5032909;28;20449;-65
2022/06/14 09:12:37;;;;;;;9.02;4.90;;;24.60;52.80;;;;;;5032857;28;20391;-65
2022/06/14 09:15:21;;;;;;;9.18;5.20;;;24.50;53.40;;;;;;5048043;28;20419;-65
2022/06/14 09:18:20;;;;;;;10.82;5.03;;;24.50;53.30;;;;;;5032683;28;20397;-65
2022/06/14 09:21:22;;;;;;;11.65;4.80;;;24.50;53.50;;;;;;5032364;28;21021;-65
2022/06/14 09:24:06;;;;;;;9.30;4.60;;;24.40;53.50;;;;;;5031266;28;20910;-65
2022/06/14 09:26:42;;;;;;;9.80;4.95;;;24.50;54.10;;;;;;5032637;28;20406;-66
2022/06/14 09:29:11;;;;;;;7.25;4.70;;;24.40;53.60;;;;;;5032743;28;20384;-65
2022/06/14 09:32:20;;;;;;;8.18;4.68;;;24.40;53.50;;;;;;5030963;28;20925;-65
2022/06/14 09:35:11;;;;;;;6.90;4.43;;;24.40;53.50;;;;;;4970268;28;20429;-65
2022/06/14 09:37:55;;;;;;;8.40;4.30;;;24.40;53.70;;;;;;5023566;28;20449;-65
2022/06/14 09:40:47;;;;;;;6.38;4.30;;;24.40;53.50;;;;;;5024795;28;20395;-65
2022/06/14 09:43:16;;;;;;;6.22;4.20;;;24.40;53.40;;;;;;5032370;28;20394;-64
2022/06/14 09:45:59;;;;;;;8.93;4.22;;;24.40;53.50;;;;;;5032398;28;20395;-64
2022/06/14 09:48:44;;;;;;;11.32;4.38;;;24.40;53.80;;;;;;5032429;28;20382;-64
2022/06/14 09:51:44;;;;;;;8.10;4.57;;;24.40;54.00;;;;;;5032270;28;20441;-65
2022/06/14 09:54:42;;;;;;;13.05;4.40;;;24.40;54.10;;;;;;5032141;28;20755;-64
2022/06/14 09:57:52;;;;;;;9.43;4.70;;;24.40;53.70;;;;;;5030929;28;20502;-65
2022/06/14 10:00:36;;;;;;;11.75;4.10;;;24.40;53.40;;;;;;5030869;28;20396;-65
2022/06/14 10:03:39;;;;;;;11.90;4.53;;;24.40;53.50;;;;;;5030651;28;20442;-65
2022/06/14 10:06:26;;;;;;;11.98;5.40;;;24.40;53.30;;;;;;5032257;28;20399;-65
2022/06/14 10:09:11;;;;;;;12.80;5.10;;;24.40;53.80;;;;;;5030432;28;20395;-65
2022/06/14 10:12:08;;;;;;;17.33;6.10;;;24.50;53.90;;;;;;5031614;28;20995;-64
2022/06/14 10:15:04;;;;;;;19.55;6.30;;;24.60;53.50;;;;;;5031607;28;20953;-65
2022/06/14 10:17:47;;;;;;;15.93;6.20;;;24.80;52.80;;;;;;5031541;28;20752;-64
2022/06/14 10:20:48;;;;;;;14.18;6.00;;;24.80;53.00;;;;;;5031994;28;20391;-65
2022/06/14 10:23:38;;;;;;;15.40;5.70;;;24.70;52.70;;;;;;5021589;28;20415;-65
2022/06/14 10:29:46;;;;;;;18.95;5.85;;;24.60;53.40;;;;;;5031513;28;20428;-64
2022/06/14 10:32:31;;;;;;;14.38;5.82;;;24.50;53.30;;;;;;5031486;28;20403;-64
2022/06/14 10:35:08;;;;;;;14.40;5.32;;;24.50;53.20;;;;;;5030988;28;20760;-65
2022/06/14 10:37:49;;;;;;;15.52;5.03;;;24.50;53.40;;;;;;5031018;28;20844;-64
2022/06/14 10:40:23;;;;;;;16.08;5.68;;;24.40;53.30;;;;;;5031655;28;20395;-64
2022/06/14 10:42:58;;;;;;;23.05;5.82;;;24.40;53.50;;;;;;5031089;28;20387;-64
2022/06/14 10:45:36;;;;;;;15.80;5.28;;;24.40;53.30;;;;;;5031584;28;20383;-64
2022/06/14 10:48:26;;;;;;;16.67;5.65;;;24.40;53.30;;;;;;5031583;28;20395;-64
2022/06/14 10:51:21;;;;;;;15.25;5.70;;;24.40;53.20;;;;;;5030702;28;20386;-64
2022/06/14 10:53:47;;;;;;;17.52;5.45;;;24.40;53.40;;;;;;5024504;28;20466;-64
2022/06/14 10:56:18;;;;;;;17.52;5.20;;;24.40;53.40;;;;;;5030646;28;21671;-65
2022/06/14 10:59:07;;;;;;;14.75;5.22;;;24.40;53.50;;;;;;5029622;28;20937;-64
2022/06/14 11:02:09;;;;;;;15.10;5.30;;;24.40;53.50;;;;;;5029827;28;20398;-64
2022/06/14 11:04:58;;;;;;;11.10;4.97;;;24.40;53.40;;;;;;5029598;28;20393;-65
2022/06/14 11:07:47;;;;;;;15.52;5.38;;;24.40;53.30;;;;;;5003222;28;20395;-64
2022/06/14 11:10:25;;;;;;;13.45;4.65;;;24.40;53.50;;;;;;5029764;28;20489;-64
2022/06/14 11:12:58;;;;;;;12.60;5.18;;;24.40;53.70;;;;;;5029513;28;20391;-65
2022/06/14 11:16:12;;;;;;;14.05;5.07;;;24.40;54.20;;;;;;5031128;28;20423;-64
2022/06/14 11:18:53;;;;;;;11.57;4.72;;;24.40;54.40;;;;;;4960822;28;20400;-64
2022/06/14 11:21:37;;;;;;;12.15;4.80;;;24.40;53.70;;;;;;5029775;28;20417;-64
2022/06/14 11:24:20;;;;;;;18.05;6.47;;;24.40;53.50;;;;;;4991952;28;20903;-63
2022/06/14 11:27:03;;;;;;;128.85;39.30;;;24.40;53.70;;;;;;4991284;28;20395;-64
2022/06/14 11:29:51;;;;;;;113.55;33.38;;;24.40;53.60;;;;;;4991575;28;20398;-64
2022/06/14 11:32:34;;;;;;;284.45;88.50;;;24.40;53.30;;;;;;4990368;28;20399;-63
2022/06/14 11:35:19;;;;;;;238.27;70.90;;;24.50;53.30;;;;;;4989885;28;20410;-63
2022/06/14 11:38:16;;;;;;;195.43;62.75;;;24.50;53.60;;;;;;4991213;28;20387;-63
2022/06/14 11:40:47;;;;;;;167.65;64.47;;;24.60;53.00;;;;;;4990250;28;20413;-63
2022/06/14 11:43:32;;;;;;;137.48;64.45;;;24.60;53.10;;;;;;4991449;28;20431;-64
2022/06/14 11:46:06;;;;;;;111.00;45.72;;;24.60;53.10;;;;;;4991296;28;20405;-64
2022/06/14 11:48:35;;;;;;;82.97;33.38;;;24.60;52.70;;;;;;4993070;28;20418;-64
2022/06/14 11:51:28;;;;;;;69.33;26.73;;;24.60;52.50;;;;;;4994767;28;20429;-64
2022/06/14 11:54:12;;;;;;;49.80;19.00;;;24.60;52.20;;;;;;4995253;28;20871;-64
2022/06/14 11:56:58;;;;;;;52.73;20.47;;;24.50;52.00;;;;;;4993624;28;20452;-64
2022/06/14 11:59:42;;;;;;;54.28;20.60;;;24.50;51.90;;;;;;4995237;28;20465;-63
2022/06/14 12:02:36;;;;;;;45.00;16.90;;;24.50;52.10;;;;;;4995128;28;20470;-64
2022/06/14 12:05:28;;;;;;;38.57;16.50;;;24.50;52.00;;;;;;4993541;28;20852;-64
2022/06/14 12:08:31;;;;;;;41.65;15.55;;;24.50;51.90;;;;;;4993378;28;20398;-64
2022/06/14 12:11:38;;;;;;;38.13;12.52;;;24.50;51.90;;;;;;4993438;28;20442;-63
2022/06/14 12:14:24;;;;;;;29.02;10.93;;;24.50;51.60;;;;;;4992407;28;20437;-63
2022/06/14 12:17:19;;;;;;;25.60;9.45;;;24.50;51.20;;;;;;4992605;28;20457;-63
2022/06/14 12:19:49;;;;;;;27.63;8.63;;;24.50;51.10;;;;;;4992849;28;20390;-64
2022/06/14 12:22:28;;;;;;;20.73;7.50;;;24.40;50.80;;;;;;5009384;28;20403;-64
2022/06/14 12:27:56;;;;;;;18.70;7.00;;;24.40;50.70;;;;;;5033923;28;20803;-63
2022/06/14 12:30:23;;;;;;;15.20;6.55;;;24.40;50.70;;;;;;5033906;28;20387;-64
2022/06/14 12:33:10;;;;;;;19.10;6.60;;;24.40;50.80;;;;;;5033660;28;20418;-63
2022/06/14 12:35:42;;;;;;;16.50;6.60;;;24.40;50.80;;;;;;5033580;28;20457;-63
2022/06/14 12:38:17;;;;;;;14.27;6.25;;;24.50;50.90;;;;;;5033621;28;20383;-64
2022/06/14 12:41:02;;;;;;;13.37;6.20;;;24.40;50.90;;;;;;5033115;28;20459;-64
2022/06/14 12:43:44;;;;;;;15.32;5.97;;;24.50;50.90;;;;;;5033635;28;20943;-63
2022/06/14 12:46:12;;;;;;;13.95;5.80;;;24.50;51.00;;;;;;5033672;28;20391;-64
2022/06/14 12:48:59;;;;;;;11.98;5.28;;;24.50;51.00;;;;;;5033419;28;20387;-64
2022/06/14 12:51:45;;;;;;;12.90;5.50;;;24.50;51.10;;;;;;5033464;28;20380;-64
2022/06/14 12:54:31;;;;;;;11.55;5.13;;;24.50;51.00;;;;;;5033316;28;20441;-63
2022/06/14 12:57:29;;;;;;;10.77;4.95;;;24.50;51.00;;;;;;5032862;28;20967;-63
2022/06/14 13:00:04;;;;;;;11.70;4.80;;;24.50;51.10;;;;;;5004388;28;20883;-64
2022/06/14 13:03:09;;;;;;;10.60;4.80;;;24.50;51.00;;;;;;5032978;28;20951;-64
2022/06/14 13:05:43;;;;;;;11.35;5.10;;;24.50;51.00;;;;;;5009386;28;20422;-63
2022/06/14 13:08:38;;;;;;;11.13;5.10;;;24.50;51.00;;;;;;5032882;28;20394;-64
2022/06/14 13:11:12;;;;;;;9.38;5.00;;;24.60;51.20;;;;;;5032627;28;20432;-64
2022/06/14 13:13:50;;;;;;;8.68;4.93;;;24.60;51.40;;;;;;5032958;28;20415;-64
2022/06/14 13:16:27;;;;;;;9.68;4.90;;;24.70;51.60;;;;;;5033168;28;20873;-64
2022/06/14 13:18:58;;;;;;;11.70;5.10;;;24.70;51.70;;;;;;5031090;28;20402;-64
2022/06/14 13:21:31;;;;;;;13.35;5.72;;;24.80;51.30;;;;;;5032596;28;20494;-64
2022/06/14 13:24:18;;;;;;;10.73;5.63;;;24.90;52.10;;;;;;5032867;28;20438;-64
2022/06/14 13:26:50;;;;;;;12.32;6.00;;;24.90;51.40;;;;;;5032666;28;20917;-64
2022/06/14 13:29:39;;;;;;;15.02;6.38;;;25.00;51.40;;;;;;5033238;28;20387;-65
2022/06/14 13:32:35;;;;;;;12.38;6.80;;;25.00;51.10;;;;;;5031737;28;20399;-67
2022/06/14 13:35:28;;;;;;;11.93;5.90;;;25.00;51.70;;;;;;5032681;28;20419;-65
2022/06/14 13:38:08;;;;;;;16.33;6.18;;;25.10;51.90;;;;;;5032939;28;20473;-65
2022/06/14 13:40:59;;;;;;;15.85;6.18;;;25.20;52.20;;;;;;5031573;28;20411;-65
2022/06/14 13:43:53;;;;;;;15.13;7.32;;;25.20;51.20;;;;;;5032632;28;20402;-67
2022/06/14 13:46:24;;;;;;;13.93;6.43;;;25.60;51.70;;;;;;5032886;28;20792;-65
2022/06/14 13:49:06;;;;;;;13.60;5.90;;;25.80;50.60;;;;;;5032532;28;20483;-65
2022/06/14 13:51:41;;;;;;;10.85;4.78;;;25.80;49.70;;;;;;5032613;28;20391;-65
2022/06/14 13:54:52;;;;;;;10.57;4.83;;;25.60;48.90;;;;;;5032499;28;20535;-65
2022/06/14 13:57:36;;;;;;;10.00;4.43;;;25.60;48.40;;;;;;5029795;28;20398;-65
2022/06/14 14:00:13;;;;;;;7.13;4.05;;;25.50;47.90;;;;;;5032454;28;20445;-65